createdAt,value
2019-03-23T00:01:17.275Z,61.06
2019-03-23T00:03:49.552Z,61.91
2019-03-23T00:06:30.512Z,62.17
2019-03-23T00:08:55.505Z,62.13
2019-03-23T00:11:27.598Z,63.10
2019-03-23T00:13:59.909Z,63.28
2019-03-23T00:16:34.272Z,63.64
2019-03-23T00:19:08.683Z,64.73
2019-03-23T00:21:41.410Z,65.42
2019-03-23T00:24:13.532Z,66.43
2019-03-23T00:26:48.158Z,67.14
2019-03-23T00:29:20.357Z,67.06
2019-03-23T00:31:52.418Z,67.41
2019-03-23T00:34:24.549Z,68.01
2019-03-23T00:36:56.602Z,68.72
2019-03-23T00:39:28.632Z,69.56
2019-03-23T00:42:00.731Z,69.83
2019-03-23T00:44:32.931Z,70.75
2019-03-23T00:47:04.978Z,71.18
2019-03-23T00:49:37.045Z,71.72
2019-03-23T00:52:09.089Z,69.00
2019-03-23T00:54:41.190Z,69.20
2019-03-23T00:57:13.483Z,68.71
2019-03-23T00:59:45.732Z,68.52
2019-03-23T01:02:17.809Z,68.37
2019-03-23T01:04:49.924Z,68.33
2019-03-23T01:07:22.046Z,67.84
2019-03-23T01:09:56.812Z,68.09
2019-03-23T01:12:29.104Z,68.06
2019-03-23T01:15:01.191Z,67.97
2019-03-23T01:17:33.437Z,68.17
2019-03-23T01:20:06.331Z,68.80
2019-03-23T01:23:16.500Z,69.58
2019-03-23T01:25:48.924Z,69.90
2019-03-23T01:28:21.185Z,70.55
2019-03-23T01:30:53.509Z,70.83
2019-03-23T01:33:25.885Z,71.12
2019-03-23T01:35:58.097Z,71.78
2019-03-23T01:38:30.326Z,72.33
2019-03-23T01:41:05.147Z,72.55
2019-03-23T01:43:37.507Z,73.14
2019-03-23T01:46:09.892Z,73.92
2019-03-23T01:48:42.100Z,74.59
2019-03-23T01:51:14.401Z,75.29
2019-03-23T01:53:46.625Z,76.05
2019-03-23T01:56:18.790Z,76.47
2019-03-23T01:58:50.915Z,77.26
2019-03-23T02:01:23.227Z,77.62
2019-03-23T02:03:55.219Z,78.12
2019-03-23T02:06:27.655Z,78.42
2019-03-23T02:08:59.951Z,78.50
2019-03-23T02:11:32.154Z,78.19
2019-03-23T02:14:04.286Z,78.28
2019-03-23T02:16:36.614Z,78.73
2019-03-23T02:19:08.789Z,79.26
2019-03-23T02:21:40.885Z,79.05
2019-03-23T02:24:13.056Z,79.13
2019-03-23T02:26:45.071Z,79.39
2019-03-23T02:29:17.202Z,79.60
2019-03-23T02:31:49.277Z,79.69
2019-03-23T02:34:21.479Z,80.08
2019-03-23T02:36:53.733Z,80.44
2019-03-23T02:39:26.174Z,80.57
2019-03-23T02:41:58.340Z,80.60
2019-03-23T02:44:30.677Z,80.39
2019-03-23T02:47:02.858Z,80.71
2019-03-23T02:49:34.869Z,81.03
2019-03-23T02:52:07.134Z,80.74
2019-03-23T02:54:39.182Z,80.81
2019-03-23T02:57:11.304Z,80.93
2019-03-23T02:59:43.504Z,81.02
2019-03-23T03:02:15.755Z,81.34
2019-03-23T03:04:47.862Z,80.29
2019-03-23T03:07:20.081Z,80.07
2019-03-23T03:09:55.389Z,80.25
2019-03-23T03:12:27.515Z,80.03
2019-03-23T03:14:59.594Z,80.12
2019-03-23T03:17:31.804Z,80.50
2019-03-23T03:20:03.772Z,80.04
2019-03-23T03:22:35.934Z,80.32
2019-03-23T03:25:09.204Z,80.02
2019-03-23T03:27:41.487Z,80.37
2019-03-23T03:30:13.927Z,79.94
2019-03-23T03:32:46.053Z,79.95
2019-03-23T03:35:18.420Z,80.05
2019-03-23T03:37:56.334Z,79.67
2019-03-23T03:40:24.597Z,79.59
2019-03-23T03:42:57.226Z,79.97
2019-03-23T03:45:29.914Z,80.42
2019-03-23T03:48:01.973Z,79.80
2019-03-23T03:50:34.170Z,80.21
2019-03-23T03:53:06.129Z,79.85
2019-03-23T03:55:38.615Z,79.78
2019-03-23T03:58:10.878Z,79.33
2019-03-23T04:00:42.963Z,78.54
2019-03-23T04:03:15.134Z,78.58
2019-03-23T04:05:47.364Z,78.22
2019-03-23T04:08:19.594Z,78.74
2019-03-23T04:10:52.937Z,78.75
2019-03-23T04:13:25.098Z,79.01
2019-03-23T04:15:58.457Z,79.42
2019-03-23T04:18:30.892Z,78.70
2019-03-23T04:21:03.181Z,78.40
2019-03-23T04:23:35.424Z,79.37
2019-03-23T04:26:26.285Z,78.92
2019-03-23T04:28:58.518Z,78.79
2019-03-23T04:31:30.835Z,79.13
2019-03-23T04:34:03.043Z,78.21
2019-03-23T04:36:35.411Z,77.94
2019-03-23T04:39:09.184Z,77.83
2019-03-23T04:41:41.474Z,78.26
2019-03-23T04:44:13.755Z,78.92
2019-03-23T04:46:45.955Z,78.56
2019-03-23T04:49:18.026Z,78.04
2019-03-23T04:51:50.150Z,78.56
2019-03-23T04:54:22.226Z,78.54
2019-03-23T04:56:54.409Z,77.77
2019-03-23T04:59:26.524Z,77.41
2019-03-23T05:01:58.648Z,77.31
2019-03-23T05:04:30.809Z,77.10
2019-03-23T05:07:02.798Z,77.52
2019-03-23T05:09:35.149Z,77.83
2019-03-23T05:12:07.234Z,78.02
2019-03-23T05:14:39.353Z,78.62
2019-03-23T05:17:11.449Z,78.87
2019-03-23T05:19:43.691Z,78.88
2019-03-23T05:22:15.817Z,78.58
2019-03-23T05:24:48.081Z,78.91
2019-03-23T05:27:20.351Z,78.73
2019-03-23T05:29:52.514Z,78.23
2019-03-23T05:32:24.627Z,77.82
2019-03-23T05:34:56.964Z,77.57
2019-03-23T05:37:28.960Z,77.92
2019-03-23T05:40:01.134Z,77.82
2019-03-23T05:42:33.215Z,77.20
2019-03-23T05:45:05.508Z,76.95
2019-03-23T05:47:37.803Z,76.82
2019-03-23T05:50:10.065Z,77.13
2019-03-23T05:52:42.275Z,77.15
2019-03-23T05:55:14.748Z,76.83
2019-03-23T05:57:47.017Z,76.96
2019-03-23T06:00:21.089Z,77.27
2019-03-23T06:02:53.481Z,77.12
2019-03-23T06:05:25.559Z,77.58
2019-03-23T06:07:57.832Z,77.75
2019-03-23T06:10:30.001Z,77.41
2019-03-23T06:13:02.281Z,78.00
2019-03-23T06:15:34.655Z,78.11
2019-03-23T06:18:06.975Z,77.91
2019-03-23T06:20:39.606Z,77.71
2019-03-23T06:23:11.808Z,77.45
2019-03-23T06:25:44.238Z,76.55
2019-03-23T06:28:16.370Z,75.86
2019-03-23T06:30:48.525Z,76.13
2019-03-23T06:33:20.866Z,76.22
2019-03-23T06:35:53.840Z,75.65
2019-03-23T06:38:26.103Z,75.51
2019-03-23T06:40:58.592Z,75.50
2019-03-23T06:43:30.666Z,74.92
2019-03-23T06:46:03.078Z,75.47
2019-03-23T06:48:35.290Z,75.83
2019-03-23T06:51:07.571Z,75.18
2019-03-23T06:53:39.617Z,75.06
2019-03-23T06:56:11.955Z,75.40
2019-03-23T06:58:44.318Z,74.20
2019-03-23T07:01:16.458Z,74.47
2019-03-23T07:03:48.521Z,74.40
2019-03-23T07:06:20.638Z,74.58
2019-03-23T07:08:52.871Z,74.79
2019-03-23T07:11:25.079Z,74.65
2019-03-23T07:13:57.352Z,74.31
2019-03-23T07:16:29.514Z,73.95
2019-03-23T07:19:01.602Z,74.53
2019-03-23T07:21:33.725Z,74.26
2019-03-23T07:24:05.848Z,74.10
2019-03-23T07:26:37.881Z,73.92
2019-03-23T07:29:10.169Z,73.56
2019-03-23T07:31:42.311Z,73.00
2019-03-23T07:34:14.460Z,72.76
2019-03-23T07:36:46.532Z,72.58
2019-03-23T07:39:26.710Z,72.05
2019-03-23T07:41:52.823Z,71.64
2019-03-23T07:44:25.016Z,71.50
2019-03-23T07:46:57.044Z,71.80
2019-03-23T07:49:29.119Z,71.55
2019-03-23T07:52:01.376Z,72.67
2019-03-23T07:54:33.570Z,71.62
2019-03-23T07:57:08.281Z,70.82
2019-03-23T07:59:40.485Z,70.77
2019-03-23T08:02:12.681Z,70.68
2019-03-23T08:04:44.693Z,70.52
2019-03-23T08:07:16.825Z,69.97
2019-03-23T08:09:48.949Z,69.69
2019-03-23T08:12:21.043Z,69.07
2019-03-23T08:14:53.137Z,69.56
2019-03-23T08:17:25.280Z,70.25
2019-03-23T08:19:57.322Z,69.68
2019-03-23T08:22:29.398Z,69.89
2019-03-23T08:25:01.426Z,70.41
2019-03-23T08:27:33.531Z,70.80
2019-03-23T08:30:05.990Z,68.89
2019-03-23T08:32:38.095Z,68.68
2019-03-23T08:35:11.228Z,69.31
2019-03-23T08:37:43.459Z,68.83
2019-03-23T08:40:15.640Z,68.26
2019-03-23T08:42:47.717Z,68.93
2019-03-23T08:45:19.823Z,69.02
2019-03-23T08:47:51.885Z,68.40
2019-03-23T08:50:23.951Z,67.32
2019-03-23T08:53:11.897Z,66.46
2019-03-23T08:58:08.761Z,65.97
2019-03-23T08:59:12.059Z,66.15
2019-03-23T09:01:44.171Z,64.79
2019-03-23T09:04:16.598Z,63.72
2019-03-23T09:06:48.960Z,63.08
2019-03-23T09:09:21.039Z,63.22
2019-03-23T09:11:54.379Z,61.89
2019-03-23T09:14:26.380Z,61.54
2019-03-23T09:16:58.522Z,61.11
2019-03-23T09:19:30.698Z,60.34
2019-03-23T09:22:02.817Z,61.25
2019-03-23T09:24:34.928Z,60.36
2019-03-23T09:27:07.057Z,60.93
2019-03-23T09:29:39.175Z,60.96
2019-03-23T09:32:13.026Z,61.59
2019-03-23T09:34:51.755Z,60.52
2019-03-23T09:37:23.896Z,60.16
2019-03-23T09:39:56.029Z,59.39
2019-03-23T09:42:28.187Z,59.07
2019-03-23T09:45:00.441Z,58.64
2019-03-23T09:47:32.539Z,59.85
2019-03-23T09:50:05.025Z,59.71
2019-03-23T09:52:37.096Z,60.57
2019-03-23T09:55:09.701Z,57.58
2019-03-23T09:57:41.990Z,58.03
2019-03-23T10:00:15.017Z,58.69
2019-03-23T10:02:47.098Z,60.19
2019-03-23T10:05:19.410Z,61.19
2019-03-23T10:07:51.845Z,61.46
2019-03-23T10:10:24.055Z,60.46
2019-03-23T10:12:56.548Z,61.96
2019-03-23T10:15:28.750Z,60.63
2019-03-23T10:18:01.729Z,60.21
2019-03-23T10:20:34.039Z,57.97
2019-03-23T10:23:16.380Z,57.95
2019-03-23T10:25:48.706Z,56.12
2019-03-23T10:28:21.163Z,56.05
2019-03-23T10:30:53.506Z,54.27
2019-03-23T10:33:25.867Z,55.39
2019-03-23T10:35:58.155Z,55.10
2019-03-23T10:38:30.742Z,56.37
2019-03-23T10:41:03.068Z,56.33
2019-03-23T10:43:35.301Z,56.65
2019-03-23T10:46:07.616Z,55.70
2019-03-23T10:48:39.923Z,56.72
2019-03-23T10:51:12.294Z,58.35
2019-03-23T10:53:44.428Z,57.37
2019-03-23T10:56:16.944Z,58.31
2019-03-23T10:58:49.082Z,56.02
2019-03-23T11:01:21.270Z,56.96
2019-03-23T11:03:53.439Z,56.53
2019-03-23T11:06:25.559Z,55.97
2019-03-23T11:08:57.737Z,55.33
2019-03-23T11:11:29.760Z,55.92
2019-03-23T11:14:01.940Z,54.80
2019-03-23T11:16:34.079Z,54.09
2019-03-23T11:19:13.459Z,54.14
2019-03-23T11:21:39.905Z,54.33
2019-03-23T11:24:12.102Z,54.26
2019-03-23T11:26:44.340Z,55.04
2019-03-23T11:29:16.489Z,54.74
2019-03-23T11:31:48.584Z,55.49
2019-03-23T11:34:20.821Z,54.06
2019-03-23T11:36:53.053Z,53.58
2019-03-23T11:39:25.248Z,56.42
2019-03-23T11:41:57.478Z,56.04
2019-03-23T11:44:29.609Z,56.29
2019-03-23T11:47:01.652Z,56.91
2019-03-23T11:49:33.722Z,56.94
2019-03-23T11:52:05.783Z,56.90
2019-03-23T11:54:38.694Z,57.95
2019-03-23T11:57:11.042Z,56.86
2019-03-23T11:59:43.135Z,55.17
2019-03-23T12:02:15.301Z,55.41
2019-03-23T12:04:47.608Z,56.48
2019-03-23T12:07:19.736Z,57.94
2019-03-23T12:09:52.073Z,57.06
2019-03-23T12:12:24.329Z,57.91
2019-03-23T12:14:56.308Z,57.82
2019-03-23T12:17:28.371Z,58.53
2019-03-23T12:20:00.509Z,58.74
2019-03-23T12:22:32.665Z,58.58
2019-03-23T12:25:05.003Z,57.74
2019-03-23T12:27:37.141Z,59.87
2019-03-23T12:30:12.122Z,59.08
2019-03-23T12:32:44.355Z,56.55
2019-03-23T12:35:16.558Z,55.38
2019-03-23T12:37:48.738Z,56.22
2019-03-23T12:40:22.052Z,55.58
2019-03-23T12:42:55.310Z,55.02
2019-03-23T12:45:28.595Z,55.99
2019-03-23T12:48:00.790Z,56.75
2019-03-23T12:50:32.959Z,56.26
2019-03-23T12:53:05.023Z,56.70
2019-03-23T12:55:37.068Z,56.36
2019-03-23T12:58:12.015Z,57.50
2019-03-23T13:00:44.124Z,55.93
2019-03-23T13:03:16.260Z,56.55
2019-03-23T13:05:48.545Z,57.05
2019-03-23T13:08:20.725Z,56.55
2019-03-23T13:10:55.403Z,57.61
2019-03-23T13:13:27.770Z,57.10
2019-03-23T13:16:00.377Z,58.84
2019-03-23T13:18:35.345Z,59.50
2019-03-23T13:21:07.910Z,59.53
2019-03-23T13:23:40.445Z,58.24
2019-03-23T13:26:15.171Z,58.22
2019-03-23T13:28:50.269Z,58.26
2019-03-23T13:31:22.439Z,58.64
2019-03-23T13:33:54.663Z,58.61
2019-03-23T13:36:26.779Z,59.18
2019-03-23T13:38:59.035Z,60.08
2019-03-23T13:41:31.175Z,59.50
2019-03-23T13:44:03.395Z,59.01
2019-03-23T13:46:35.462Z,58.81
2019-03-23T13:49:07.571Z,59.15
2019-03-23T13:51:39.669Z,59.40
2019-03-23T13:54:11.781Z,60.57
2019-03-23T13:56:43.865Z,60.45
2019-03-23T13:59:15.884Z,60.27
2019-03-23T14:01:48.011Z,62.04
2019-03-23T14:04:20.118Z,60.48
2019-03-23T14:06:52.248Z,60.17
2019-03-23T14:09:24.468Z,61.83
2019-03-23T14:11:56.453Z,62.63
2019-03-23T14:14:28.700Z,62.02
2019-03-23T14:17:00.807Z,62.19
2019-03-23T14:19:32.941Z,61.12
2019-03-23T14:22:05.158Z,60.54
2019-03-23T14:24:37.214Z,60.91
2019-03-23T14:27:09.292Z,60.60
2019-03-23T14:29:41.406Z,60.93
2019-03-23T14:32:13.467Z,61.49
2019-03-23T14:34:45.491Z,60.82
2019-03-23T14:37:17.622Z,61.19
2019-03-23T14:39:49.769Z,62.65
2019-03-23T14:42:21.844Z,61.53
2019-03-23T14:44:53.956Z,61.14
2019-03-23T14:47:26.253Z,60.76
2019-03-23T14:50:07.801Z,60.68
2019-03-23T14:52:41.562Z,61.45
2019-03-23T14:55:29.442Z,61.93
2019-03-23T14:58:01.432Z,61.67
2019-03-23T15:00:35.735Z,62.64
2019-03-23T15:03:07.972Z,62.73
2019-03-23T15:05:42.565Z,62.90
2019-03-23T15:08:15.993Z,63.06
2019-03-23T15:10:48.100Z,62.89
2019-03-23T15:13:20.339Z,64.00
2019-03-23T15:16:32.710Z,62.82
2019-03-23T15:19:15.955Z,64.17
2019-03-23T15:22:00.439Z,64.58
2019-03-23T15:24:35.188Z,63.95
2019-03-23T15:27:07.277Z,63.96
2019-03-23T15:29:41.526Z,64.95
2019-03-23T15:32:13.591Z,64.62
2019-03-23T15:34:45.773Z,64.95
2019-03-23T15:37:17.941Z,64.78
2019-03-23T15:39:50.247Z,65.64
2019-03-23T15:42:25.058Z,66.63
2019-03-23T15:44:56.379Z,66.46
2019-03-23T15:47:28.494Z,65.85
2019-03-23T15:50:00.630Z,65.58
2019-03-23T15:52:34.144Z,65.88
2019-03-23T15:55:06.662Z,66.44
2019-03-23T15:57:39.096Z,66.19
2019-03-23T16:00:16.411Z,66.69
2019-03-23T16:02:48.516Z,66.56
2019-03-23T16:05:20.654Z,67.97
2019-03-23T16:07:52.619Z,66.79
2019-03-23T16:10:24.771Z,66.46
2019-03-23T16:12:56.787Z,66.67
2019-03-23T16:15:28.834Z,66.75
2019-03-23T16:18:01.748Z,67.05
2019-03-23T16:20:34.034Z,67.34
2019-03-23T16:23:07.735Z,67.58
2019-03-23T16:25:46.246Z,67.87
2019-03-23T16:28:34.614Z,68.58
2019-03-23T16:31:10.556Z,69.22
2019-03-23T16:33:51.706Z,68.83
2019-03-23T16:36:39.604Z,69.63
2019-03-23T16:39:11.742Z,68.98
2019-03-23T16:41:43.775Z,69.21
2019-03-23T16:44:15.992Z,69.49
2019-03-23T16:46:48.167Z,69.42
2019-03-23T16:49:22.940Z,69.53
2019-03-23T16:51:55.199Z,70.02
2019-03-23T16:54:27.307Z,70.08
2019-03-23T16:56:59.420Z,70.57
2019-03-23T16:59:31.499Z,70.33
2019-03-23T17:02:03.585Z,70.21
2019-03-23T17:04:35.649Z,70.58
2019-03-23T17:07:07.587Z,70.62
2019-03-23T17:09:39.678Z,71.22
2019-03-23T17:12:11.838Z,71.68
2019-03-23T17:14:44.030Z,72.03
2019-03-23T17:17:16.138Z,72.30
2019-03-23T17:19:48.319Z,73.60
2019-03-23T17:22:20.392Z,73.96
2019-03-23T17:24:52.587Z,74.45
2019-03-23T17:27:24.744Z,74.94
2019-03-23T17:29:56.852Z,76.48
2019-03-23T17:32:28.963Z,77.92
2019-03-23T17:35:01.105Z,79.85
2019-03-23T17:37:33.775Z,80.29
2019-03-23T17:40:06.516Z,81.36
2019-03-23T17:42:38.822Z,81.87
2019-03-23T17:45:11.954Z,82.66
2019-03-23T17:47:44.746Z,82.96
2019-03-23T17:50:17.069Z,82.86
2019-03-23T17:52:49.689Z,83.12
2019-03-23T17:55:21.964Z,82.74
2019-03-23T17:57:54.187Z,82.76
2019-03-23T18:00:26.447Z,82.56
2019-03-23T18:02:58.641Z,82.89
2019-03-23T18:05:30.883Z,83.23
2019-03-23T18:08:03.000Z,83.02
2019-03-23T18:10:35.182Z,82.26
2019-03-23T18:13:16.132Z,82.08
2019-03-23T18:15:41.131Z,81.81
2019-03-23T18:18:13.121Z,80.52
2019-03-23T18:20:45.252Z,81.14
2019-03-23T18:23:17.353Z,81.18
2019-03-23T18:25:49.390Z,81.30
2019-03-23T18:28:21.449Z,80.70
2019-03-23T18:30:53.796Z,80.95
2019-03-23T18:33:25.852Z,81.21
2019-03-23T18:35:58.005Z,80.04
2019-03-23T18:38:30.123Z,80.26
2019-03-23T18:41:02.209Z,80.37
2019-03-23T18:43:37.655Z,80.17
2019-03-23T18:46:09.775Z,80.42
2019-03-23T18:48:41.759Z,80.40
2019-03-23T18:51:13.946Z,80.33
2019-03-23T18:53:46.024Z,80.15
2019-03-23T18:56:18.130Z,80.27
2019-03-23T18:58:50.216Z,79.37
2019-03-23T19:01:22.225Z,79.32
2019-03-23T19:03:54.318Z,80.12
2019-03-23T19:06:26.441Z,79.95
2019-03-23T19:08:58.606Z,79.23
2019-03-23T19:11:30.706Z,79.03
2019-03-23T19:14:02.735Z,79.25
2019-03-23T19:16:34.769Z,79.32
2019-03-23T19:19:06.873Z,79.35
2019-03-23T19:21:38.959Z,78.71
2019-03-23T19:24:11.016Z,78.79
2019-03-23T19:26:43.141Z,77.39
2019-03-23T19:29:17.812Z,76.78
2019-03-23T19:31:55.092Z,77.05
2019-03-23T19:34:27.309Z,76.74
2019-03-23T19:36:59.487Z,75.56
2019-03-23T19:39:31.600Z,75.50
2019-03-23T19:42:03.739Z,75.78
2019-03-23T19:44:38.787Z,74.91
2019-03-23T19:47:10.914Z,73.71
2019-03-23T19:49:43.128Z,72.50
2019-03-23T19:52:15.229Z,72.67
2019-03-23T19:54:47.381Z,72.89
2019-03-23T19:57:19.502Z,72.96
2019-03-23T19:59:51.705Z,73.36
2019-03-23T20:02:24.177Z,73.59
2019-03-23T20:04:56.378Z,73.33
2019-03-23T20:07:33.168Z,72.92
2019-03-23T20:10:02.284Z,72.15
2019-03-23T20:12:34.547Z,72.10
2019-03-23T20:15:09.564Z,71.19
2019-03-23T20:17:41.577Z,70.98
2019-03-23T20:20:14.639Z,70.55
2019-03-23T20:22:46.744Z,71.28
2019-03-23T20:25:18.821Z,72.04
2019-03-23T20:27:50.811Z,71.52
2019-03-23T20:30:25.880Z,71.12
2019-03-23T20:32:58.048Z,71.28
2019-03-23T20:35:30.082Z,71.71
2019-03-23T20:38:02.194Z,72.02
2019-03-23T20:40:34.235Z,71.85
2019-03-23T20:43:08.830Z,72.16
2019-03-23T20:45:42.585Z,72.35
2019-03-23T20:48:15.504Z,72.79
2019-03-23T20:50:48.308Z,72.33
2019-03-23T20:53:22.365Z,72.44
2019-03-23T20:55:54.536Z,72.57
2019-03-23T20:58:26.595Z,72.01
2019-03-23T21:00:58.991Z,71.97
2019-03-23T21:03:31.149Z,71.66
2019-03-23T21:06:03.450Z,71.82
2019-03-23T21:08:35.565Z,71.97
2019-03-23T21:11:07.672Z,71.44
2019-03-23T21:13:39.739Z,72.11
2019-03-23T21:16:11.667Z,71.31
2019-03-23T21:18:52.651Z,71.54
2019-03-23T21:21:24.781Z,72.25
2019-03-23T21:23:56.931Z,72.26
2019-03-23T21:26:32.098Z,72.62
2019-03-23T21:29:04.205Z,72.57
2019-03-23T21:31:36.354Z,72.42
2019-03-23T21:34:08.425Z,72.45
2019-03-23T21:36:40.501Z,72.26
2019-03-23T21:39:12.570Z,72.23
2019-03-23T21:41:44.686Z,72.07
2019-03-23T21:44:16.731Z,72.29
2019-03-23T21:46:48.812Z,71.87
2019-03-23T21:49:20.873Z,71.65
2019-03-23T21:51:52.952Z,72.06
2019-03-23T21:54:25.136Z,71.95
2019-03-23T21:56:57.343Z,71.90
2019-03-23T21:59:29.463Z,72.13
2019-03-23T22:02:01.570Z,71.92
2019-03-23T22:04:33.654Z,72.39
2019-03-23T22:07:06.103Z,72.50
2019-03-23T22:09:38.186Z,72.33
2019-03-23T22:12:10.331Z,72.54
2019-03-23T22:14:42.594Z,72.50
2019-03-23T22:17:14.759Z,72.57
2019-03-23T22:19:46.813Z,72.98
2019-03-23T22:22:19.058Z,73.12
2019-03-23T22:24:54.138Z,73.34
2019-03-23T22:27:26.206Z,73.53
2019-03-23T22:29:58.565Z,74.01
2019-03-23T22:32:30.739Z,73.63
2019-03-23T22:35:04.915Z,73.83
2019-03-23T22:37:39.297Z,74.06
2019-03-23T22:40:13.516Z,74.01
2019-03-23T22:42:45.643Z,73.78
2019-03-23T22:45:17.884Z,73.97
2019-03-23T22:47:49.981Z,74.18
2019-03-23T22:50:22.117Z,73.50
2019-03-23T22:52:54.188Z,73.17
2019-03-23T22:55:26.176Z,73.60
2019-03-23T22:57:58.331Z,72.73
2019-03-23T23:00:43.151Z,73.08
2019-03-23T23:03:15.999Z,73.02
2019-03-23T23:05:48.225Z,73.08
2019-03-23T23:08:23.541Z,73.21
2019-03-23T23:10:57.712Z,73.47
2019-03-23T23:13:29.902Z,73.44
2019-03-23T23:16:02.319Z,73.42
2019-03-23T23:18:34.421Z,73.87
2019-03-23T23:21:06.442Z,73.37
2019-03-23T23:23:38.702Z,73.84
2019-03-23T23:26:12.181Z,73.15
2019-03-23T23:28:44.270Z,73.36
2019-03-23T23:31:16.293Z,73.79
2019-03-23T23:33:48.353Z,74.15
2019-03-23T23:36:20.444Z,73.18
2019-03-23T23:38:52.718Z,73.52
2019-03-23T23:41:24.746Z,73.31
2019-03-23T23:43:56.834Z,73.04
2019-03-23T23:46:28.836Z,72.87
2019-03-23T23:49:00.918Z,73.61
2019-03-23T23:51:32.963Z,73.24
2019-03-23T23:54:05.148Z,73.46
2019-03-23T23:56:37.195Z,73.15
2019-03-23T23:59:09.187Z,72.56
